Valle Toledo, Valles Caldera, New Mexico Weather observations

Data are for 10 minute period ending at time listed.
 Day   Time   Solar   Ave.   Ave.  Ave.  Vector  Max.   Baro.   Total    
  of    of     Rad.   Air    Rel.  Wind   Wind   Wind  Press.  Precip.   
Year   Day            Temp.  Hum.  Speed  Dir.   Gust                    
2014   (MST)  Kw/m2    F      %     mph   deg.    mph    mb.     in.     
-------------------------------------------------------------------------
 292   20:30   0.00   40.3    81    2.0   124     4.2   733.9    0.00 
 292   20:40   0.00   39.4    84    2.9    54     4.2   733.9    0.00 
 292   20:50   0.00   39.4    83    2.5    70     4.8   733.9    0.00 
 292   21:00   0.00   39.1    83    2.5    34     4.8   733.8    0.00 
 292   21:10   0.00   38.8    84    4.2    55     7.2   733.9    0.00 
 292   21:20   0.00   39.9    80    3.4    36     7.8   733.8    0.00 
 292   21:30   0.00   39.1    81    3.3    80     6.0   733.8    0.00 
 292   21:40   0.00   38.3    83    2.5    34     4.8   733.8    0.00 
 292   21:50   0.00   38.1    83    3.2    66     6.0   733.8    0.00 
 292   22:00   0.00   37.9    82    2.3    58     3.6   733.8    0.00 
 292   22:10   0.00   38.5    81    2.8    69     4.8   733.6    0.00 
 292   22:20   0.00   39.0    80    2.0   114     3.0   733.7    0.00 
 292   22:30   0.00   38.3    80    2.2    13     4.2   733.8    0.00 
 292   22:40   0.00   37.7    82    3.4    46     4.8   733.9    0.00 
 292   22:50   0.00   37.7    80    4.6    34     5.4   734.0    0.00 
 292   23:00   0.00   37.7    78    4.0    32     4.8   734.0    0.00 
 292   23:10   0.00   37.0    80    2.0    77     4.2   734.0    0.00 
 292   23:20   0.00   36.7    81    3.1    77     4.8   734.0    0.00 
 292   23:30   0.00   36.6    80    3.3    44     4.8   734.0    0.00 
 292   23:40   0.00   36.5    80    2.3    51     4.2   734.1    0.00 
 292   23:50   0.00   36.5    81    2.1    35     3.6   734.0    0.00 
 293    0:00   0.00   36.2    82    2.6    40     4.2   734.0    0.00 
 293    0:10   0.00   36.1    82    2.8    24     3.6   734.0    0.00 
 293    0:20   0.00   35.9    82    2.5    75     4.8   734.0    0.00 
 293    0:30   0.00   36.4    82    2.6    50     5.4   734.0    0.00 
 293    0:40   0.00   36.7    80    3.1    43     4.8   734.0    0.00 
 293    0:50   0.00   36.8    80    2.6    36     4.2   734.0    0.00 
 293    1:00   0.00   36.9    79    1.5    18     5.4   734.0    0.00 
 293    1:10   0.00   36.6    80    1.6    35     3.6   734.0    0.00 
 293    1:20   0.00   36.5    80    2.5    37     4.8   733.9    0.00 
 293    1:30   0.00   36.2    80    2.6    43     4.8   733.8    0.00 
 293    1:40   0.00   36.1    80    2.7    58     4.2   733.9    0.00 
 293    1:50   0.00   36.9    79    2.8    21     4.8   733.9    0.00 
 293    2:00   0.00   36.8    78    2.4    50     4.8   734.0    0.00 
 293    2:10   0.00   37.5    76    2.9    42     4.8   733.8    0.00 
 293    2:20   0.00   37.2    77    3.3    36     4.8   733.9    0.00 
 293    2:30   0.00   37.2    77    3.6    39     5.4   733.9    0.00 
 293    2:40   0.00   37.7    76    3.8    38     4.8   733.8    0.00 
 293    2:50   0.00   38.3    75    3.4    39     4.8   733.8    0.00 
 293    3:00   0.00   38.7    75    3.7    42     4.2   733.9    0.00 
 293    3:10   0.00   38.8    74    2.5    46     4.2   733.9    0.00 
 293    3:20   0.00   38.3    75    3.6    37     4.8   733.9    0.00 
 293    3:30   0.00   38.2    76    2.7    38     4.2   734.0    0.00 
 293    3:40   0.00   38.0    76    3.6    37     4.8   734.0    0.00 
 293    3:50   0.00   38.4    75    3.2    39     4.8   734.0    0.00 
 293    4:00   0.00   38.0    76    3.1    46     4.2   734.0    0.00 
 293    4:10   0.00   38.4    74    3.1    39     4.2   734.1    0.00 
 293    4:20   0.00   38.4    74    3.5    35     4.8   734.0    0.00 
 293    4:30   0.00   38.2    74    3.9    40     5.4   734.0    0.00 
 293    4:40   0.00   38.0    75    2.8    44     4.8   734.0    0.00 
 293    4:50   0.00   37.8    76    2.0    40     4.2   734.0    0.00 
 293    5:00   0.00   37.6    76    3.0    33     4.8   734.1    0.00 
 293    5:10   0.00   37.1    77    3.9    42     4.8   734.1    0.00 
 293    5:20   0.00   36.9    78    4.2    38     4.8   734.2    0.00 
 293    5:30   0.00   36.7    78    3.5    36     4.2   734.3    0.00 
 293    5:40   0.00   36.5    79    2.9    33     4.8   734.3    0.00 
 293    5:50   0.00   36.6    79    2.4    41     4.2   734.3    0.00 
 293    6:00   0.00   36.6    79    3.5    40     5.4   734.3    0.00 
 293    6:10   0.00   36.7    79    3.5    43     4.8   734.3    0.00 
 293    6:20   0.00   36.4    80    3.5    40     5.4   734.3    0.00 
 293    6:30   0.01   36.5    80    3.2    34     4.2   734.3    0.00 
 293    6:40   0.01   36.3    80    2.6    37     3.6   734.3    0.00 
 293    6:50   0.01   36.5    81    2.7    47     3.6   734.3    0.00 
 293    7:00   0.02   36.8    80    2.7    41     3.6   734.4    0.00 
 293    7:10   0.02   36.9    80    2.5    37     3.6   734.5    0.00 
 293    7:20   0.03   38.2    79    2.4    44     4.2   734.6    0.00 
 293    7:30   0.03   39.7    75    1.9    34     3.0   734.8    0.00 
 293    7:40   0.06   40.5    75    2.2    31     3.6   734.8    0.00 
 293    7:50   0.24   41.6    76    0.9    10     2.4   735.0    0.00 
 293    8:00   0.28   46.0    70    0.7   140     2.4   735.0    0.00 
 293    8:10   0.33   49.3    63    0.9   160     3.0   735.1    0.00 
 293    8:20   0.23   50.0    55    2.2   164     3.6   735.1    0.00 
 293    8:30   0.14   49.9    56    2.4   159     5.4   735.2    0.00 
 293    8:40   0.12   48.7    59    3.0   156     4.2   735.2    0.00 
 293    8:50   0.26   48.8    59    2.4   158     5.4   735.2    0.00 
 293    9:00   0.43   50.9    56    3.3   169     6.0   735.3    0.00 
 293    9:10   0.41   52.3    55    3.0   173     6.6   735.3    0.00 
 293    9:20   0.42   52.2    56    4.6   190     6.6   735.3    0.00 
 293    9:30   0.38   52.3    55    5.0   172     8.4   735.3    0.00 
 293    9:40   0.47   53.5    51    4.2   142     8.4   735.3    0.00 
 293    9:50   0.50   54.9    48    6.0   138    11.9   735.2    0.00 
 293   10:00   0.53   55.1    47    6.7   149    11.9   735.2    0.00 
 293   10:10   0.49   54.3    48    7.1   126    11.9   735.1    0.00 
 293   10:20   0.41   54.1    47    7.9   117    13.7   735.1    0.00 
 293   10:30   0.31   53.1    47    8.4   107    14.9   735.1    0.00 
 293   10:40   0.66   54.8    46    6.5   118    12.5   735.1    0.00 
 293   10:50   0.65   57.2    43    6.6   143    11.3   735.1    0.00 
 293   11:00   0.75   57.5    42    8.1   153    13.1   735.0    0.00 
 293   11:10   0.66   57.0    42    8.7   148    14.3   735.0    0.00 
 293   11:20   0.79   57.9    41    9.4   154    16.1   734.9    0.00 
 293   11:30   0.75   58.3    38    9.5   158    19.1   734.9    0.00 
 293   11:40   0.28   55.0    42    6.3   146    11.3   734.8    0.00 
 293   11:50   0.61   56.0    40    8.2   130    15.5   734.7    0.00 
 293   12:00   0.53   56.9    34    8.1   146    14.3   734.7    0.00 
 293   12:10   0.73   57.3    34    9.4   132    17.3   734.5    0.00 
 293   12:20   0.68   57.4    32    9.2   156    18.5   734.3    0.00 
 293   12:30   0.81   58.8    32    8.8   143    15.5   734.2    0.00 
 293   12:40   0.76   58.5    32    8.7   132    16.1   734.2    0.00 
 293   12:50   0.73   58.7    32    8.6   137    14.9   734.1    0.00 
 293   13:00   0.76   58.2    33    6.6   126    12.5   733.9    0.00 
 293   13:10   0.77   59.1    31    7.8   165    11.9   733.8    0.00 
 293   13:20   0.46   57.6    34    8.1   133    14.3   733.6    0.00 
 293   13:30   0.54   58.1    33    6.9   113    14.9   733.6    0.00 
 293   13:40   0.70   58.9    32    6.5   118    12.5   733.5    0.00 
 293   13:50   0.65   58.5    32    5.9   107    12.5   733.4    0.00 
 293   14:00   0.61   59.9    31    6.6   140    12.5   733.2    0.00 
 293   14:10   0.17   57.2    36    7.3   124    11.3   733.2    0.00 
 293   14:20   0.58   57.2    39    7.5   130    14.9   733.4    0.00 
 293   14:30   0.52   58.4    37    5.1   130    11.3   733.4    0.00 
 293   14:40   0.64   59.1    34    9.1   163    15.5   733.3    0.00 
 293   14:50   0.58   59.1    35    8.5   156    11.9   733.2    0.00 
 293   15:00   0.16   57.1    38    7.7   156    13.1   733.3    0.00 
 293   15:10   0.18   54.5    46    7.5   159    14.9   733.4    0.00 
 293   15:20   0.18   53.1    53    6.2   157    11.3   733.5    0.00 
 293   15:30   0.14   52.6    54    4.5   167     7.8   733.6    0.00 
 293   15:40   0.10   52.1    56    1.8   167     3.0   733.7    0.00 
 293   15:50   0.20   52.6    55    2.8   127     4.2   733.7    0.00 
 293   16:00   0.23   54.5    50    3.4   133     7.8   733.7    0.00 
 293   16:10   0.14   53.4    52    4.3   154     7.8   733.7    0.00 
 293   16:20   0.18   54.0    50    4.1   159     7.2   733.7    0.00 
 293   16:30   0.09   52.6    52    3.8   150     7.2   733.8    0.00 
 293   16:40   0.10   52.0    52    2.9   151     4.8   733.8    0.00 
 293   16:50   0.08   51.9    52    2.5   154     3.6   733.8    0.00 
 293   17:00   0.04   51.5    54    0.6   138     2.4   733.8    0.00 
 293   17:10   0.02   50.9    54    0.6   201     2.4   733.8    0.00 
 293   17:20   0.01   49.9    56    1.6    48     3.0   733.8    0.00 
 293   17:30   0.00   48.5    58    2.4    54     3.6   733.9    0.00 
 293   17:40   0.00   47.3    61    3.1    39     3.6   733.9    0.00 
 293   17:50   0.00   46.2    64    3.2    38     3.6   733.9    0.00 
 293   18:00   0.00   45.5    66    2.9    29     3.6   734.0    0.00 
 293   18:10   0.00   45.2    67    2.6    24     3.0   734.0    0.00 
 293   18:20   0.00   45.2    68    2.5    39     3.6   734.1    0.00 
 293   18:30   0.00   45.3    67    2.9    36     3.6   734.1    0.00 
 293   18:40   0.00   45.2    67    2.7    30     3.6   734.1    0.00 
 293   18:50   0.00   44.6    68    3.5    42     4.2   734.2    0.00 
 293   19:00   0.00   44.0    69    3.5    40     4.2   734.1    0.00 
 293   19:10   0.00   43.7    69    3.0    44     4.2   734.0    0.00 
 293   19:20   0.00   43.3    70    3.2    41     4.2   734.1    0.00 
 293   19:30   0.00   42.8    71    3.1    53     4.2   734.1    0.00 
 293   19:40   0.00   42.1    73    2.0     0     3.6   734.1    0.00 
 293   19:50   0.00   41.5    74    2.4    21     3.6   734.2    0.00 
 293   20:00   0.00   41.3    75    3.7    25     5.4   734.3    0.00 
 293   20:10   0.00   42.9    72    2.3   110     4.2   734.4    0.00 
 293   20:20   0.00   44.4    69    3.1   106     6.0   734.5    0.00 

Return to Valle Toledo, Valles Caldera graphs page.


Western Regional Climate Center,wrcc@dri.edu